Terminal Aerodrome Forecast
Issued by NWS

Current Version | Previous Version | Text Only | Print | Product List | Glossary Off
Versions: 1 2 3 4 5 6 7 8 9 10 11 12 13 14 15 16 17 18 19 20 21 22 23 24 25 26 27 28 29 30

822
FTUS41 KRLX 212326
TAFCKB
TAF
KCKB 212326Z 2200/2224 03005KT P6SM SCT035 BKN050
      TEMPO 2201/2204 4SM -SHRA OVC015
     FM220400 02008KT P6SM BKN012 OVC022
     FM220900 02006KT 3SM -SHRA OVC010
     FM221200 03005KT 2SM -SHRA OVC008
     FM221800 30005KT 2SM -SHRA OVC015
     FM222300 03003KT 6SM -SHRA OVC015=

USA.gov is the U.S. government's official web portal to all federal, state and local government web resources and services.